sensor_id;sensor_type;location;lat;lon;timestamp;P1;durP1;ratioP1;P2;durP2;ratioP2
41946;SDS011;27638;42.184;24.848;2023-03-11T00:01:40;8.63;;;3.95;;
41946;SDS011;27638;42.184;24.848;2023-03-11T00:04:06;7.65;;;5.30;;
41946;SDS011;27638;42.184;24.848;2023-03-11T00:06:34;11.80;;;5.85;;
41946;SDS011;27638;42.184;24.848;2023-03-11T00:09:00;6.90;;;4.53;;
41946;SDS011;27638;42.184;24.848;2023-03-11T00:11:25;8.00;;;4.65;;
41946;SDS011;27638;42.184;24.848;2023-03-11T00:13:51;6.20;;;5.10;;
41946;SDS011;27638;42.184;24.848;2023-03-11T00:16:17;8.88;;;5.00;;
41946;SDS011;27638;42.184;24.848;2023-03-11T00:18:42;8.48;;;5.10;;
41946;SDS011;27638;42.184;24.848;2023-03-11T00:21:13;12.75;;;6.18;;
41946;SDS011;27638;42.184;24.848;2023-03-11T00:23:41;8.75;;;4.75;;
41946;SDS011;27638;42.184;24.848;2023-03-11T00:26:06;8.10;;;5.05;;
41946;SDS011;27638;42.184;24.848;2023-03-11T00:28:32;9.07;;;6.38;;
41946;SDS011;27638;42.184;24.848;2023-03-11T00:30:57;7.20;;;4.82;;
41946;SDS011;27638;42.184;24.848;2023-03-11T00:33:23;9.05;;;5.07;;
41946;SDS011;27638;42.184;24.848;2023-03-11T00:35:49;9.07;;;5.53;;
41946;SDS011;27638;42.184;24.848;2023-03-11T00:38:15;23.20;;;11.48;;
41946;SDS011;27638;42.184;24.848;2023-03-11T00:40:42;7.13;;;5.60;;
41946;SDS011;27638;42.184;24.848;2023-03-11T00:43:09;13.13;;;8.52;;
41946;SDS011;27638;42.184;24.848;2023-03-11T00:45:34;11.70;;;7.72;;
41946;SDS011;27638;42.184;24.848;2023-03-11T00:48:00;13.15;;;7.03;;
41946;SDS011;27638;42.184;24.848;2023-03-11T00:50:27;9.93;;;6.70;;
41946;SDS011;27638;42.184;24.848;2023-03-11T00:52:55;24.40;;;10.70;;
41946;SDS011;27638;42.184;24.848;2023-03-11T00:55:30;10.88;;;6.35;;
41946;SDS011;27638;42.184;24.848;2023-03-11T00:57:59;8.55;;;5.43;;
41946;SDS011;27638;42.184;24.848;2023-03-11T01:00:26;8.45;;;5.20;;
41946;SDS011;27638;42.184;24.848;2023-03-11T01:02:54;6.18;;;5.57;;
41946;SDS011;27638;42.184;24.848;2023-03-11T01:05:21;12.73;;;6.00;;
41946;SDS011;27638;42.184;24.848;2023-03-11T01:07:52;6.50;;;5.63;;
41946;SDS011;27638;42.184;24.848;2023-03-11T01:10:17;6.18;;;4.70;;
41946;SDS011;27638;42.184;24.848;2023-03-11T01:12:43;9.30;;;5.00;;
41946;SDS011;27638;42.184;24.848;2023-03-11T01:15:11;7.20;;;4.80;;
41946;SDS011;27638;42.184;24.848;2023-03-11T01:17:44;7.70;;;4.53;;
41946;SDS011;27638;42.184;24.848;2023-03-11T01:20:10;6.55;;;5.20;;
41946;SDS011;27638;42.184;24.848;2023-03-11T01:22:36;24.15;;;10.85;;
41946;SDS011;27638;42.184;24.848;2023-03-11T01:25:02;12.13;;;6.55;;
41946;SDS011;27638;42.184;24.848;2023-03-11T01:27:28;14.02;;;7.32;;
41946;SDS011;27638;42.184;24.848;2023-03-11T01:29:53;7.57;;;4.95;;
41946;SDS011;27638;42.184;24.848;2023-03-11T01:32:19;8.60;;;5.85;;
41946;SDS011;27638;42.184;24.848;2023-03-11T01:34:44;7.15;;;5.10;;
41946;SDS011;27638;42.184;24.848;2023-03-11T01:37:09;18.20;;;8.57;;
41946;SDS011;27638;42.184;24.848;2023-03-11T01:39:35;12.25;;;7.35;;
41946;SDS011;27638;42.184;24.848;2023-03-11T01:42:00;9.68;;;6.00;;
41946;SDS011;27638;42.184;24.848;2023-03-11T01:44:26;13.13;;;8.20;;
41946;SDS011;27638;42.184;24.848;2023-03-11T01:49:17;9.90;;;5.97;;
41946;SDS011;27638;42.184;24.848;2023-03-11T01:51:45;17.48;;;9.48;;
41946;SDS011;27638;42.184;24.848;2023-03-11T01:54:15;13.95;;;5.53;;
41946;SDS011;27638;42.184;24.848;2023-03-11T01:56:44;12.55;;;5.28;;
41946;SDS011;27638;42.184;24.848;2023-03-11T01:59:11;9.23;;;5.32;;
41946;SDS011;27638;42.184;24.848;2023-03-11T02:01:51;6.53;;;4.88;;
41946;SDS011;27638;42.184;24.848;2023-03-11T02:04:22;10.43;;;5.63;;
41946;SDS011;27638;42.184;24.848;2023-03-11T02:06:48;7.28;;;5.00;;
41946;SDS011;27638;42.184;24.848;2023-03-11T02:09:13;15.07;;;7.85;;
41946;SDS011;27638;42.184;24.848;2023-03-11T02:11:39;10.10;;;6.82;;
41946;SDS011;27638;42.184;24.848;2023-03-11T02:14:05;11.07;;;6.07;;
41946;SDS011;27638;42.184;24.848;2023-03-11T02:16:32;7.85;;;5.53;;
41946;SDS011;27638;42.184;24.848;2023-03-11T02:18:59;8.80;;;5.40;;
41946;SDS011;27638;42.184;24.848;2023-03-11T02:21:33;7.18;;;5.70;;
41946;SDS011;27638;42.184;24.848;2023-03-11T02:27:00;9.32;;;5.70;;
41946;SDS011;27638;42.184;24.848;2023-03-11T02:29:29;8.40;;;5.13;;
41946;SDS011;27638;42.184;24.848;2023-03-11T02:31:57;16.67;;;7.78;;
41946;SDS011;27638;42.184;24.848;2023-03-11T02:34:27;11.02;;;5.63;;
41946;SDS011;27638;42.184;24.848;2023-03-11T02:36:54;12.40;;;5.50;;
41946;SDS011;27638;42.184;24.848;2023-03-11T02:41:58;17.90;;;10.73;;
41946;SDS011;27638;42.184;24.848;2023-03-11T02:44:26;9.27;;;6.90;;
41946;SDS011;27638;42.184;24.848;2023-03-11T02:46:52;11.68;;;6.95;;
41946;SDS011;27638;42.184;24.848;2023-03-11T02:49:18;9.50;;;6.78;;
41946;SDS011;27638;42.184;24.848;2023-03-11T02:51:46;11.07;;;7.55;;
41946;SDS011;27638;42.184;24.848;2023-03-11T02:54:11;13.95;;;8.25;;
41946;SDS011;27638;42.184;24.848;2023-03-11T02:56:37;14.93;;;7.70;;
41946;SDS011;27638;42.184;24.848;2023-03-11T02:59:02;13.00;;;8.10;;
41946;SDS011;27638;42.184;24.848;2023-03-11T03:01:28;12.45;;;6.82;;
41946;SDS011;27638;42.184;24.848;2023-03-11T03:03:53;9.05;;;6.03;;
41946;SDS011;27638;42.184;24.848;2023-03-11T03:06:19;9.05;;;6.30;;
41946;SDS011;27638;42.184;24.848;2023-03-11T03:08:44;9.43;;;5.78;;
41946;SDS011;27638;42.184;24.848;2023-03-11T03:11:09;6.97;;;5.38;;
41946;SDS011;27638;42.184;24.848;2023-03-11T03:13:35;11.18;;;6.50;;
41946;SDS011;27638;42.184;24.848;2023-03-11T03:16:00;11.57;;;6.57;;
41946;SDS011;27638;42.184;24.848;2023-03-11T03:18:26;10.45;;;7.18;;
41946;SDS011;27638;42.184;24.848;2023-03-11T03:20:52;14.82;;;8.77;;
41946;SDS011;27638;42.184;24.848;2023-03-11T03:23:18;23.85;;;11.27;;
41946;SDS011;27638;42.184;24.848;2023-03-11T03:25:44;26.92;;;12.95;;
41946;SDS011;27638;42.184;24.848;2023-03-11T03:28:10;25.65;;;11.13;;
41946;SDS011;27638;42.184;24.848;2023-03-11T03:30:39;16.55;;;8.45;;
41946;SDS011;27638;42.184;24.848;2023-03-11T03:33:05;18.50;;;8.35;;
41946;SDS011;27638;42.184;24.848;2023-03-11T03:35:31;27.85;;;11.82;;
41946;SDS011;27638;42.184;24.848;2023-03-11T03:37:57;9.23;;;5.93;;
41946;SDS011;27638;42.184;24.848;2023-03-11T03:40:24;17.35;;;8.57;;
41946;SDS011;27638;42.184;24.848;2023-03-11T03:42:49;14.05;;;7.97;;
41946;SDS011;27638;42.184;24.848;2023-03-11T03:45:14;7.20;;;5.63;;
41946;SDS011;27638;42.184;24.848;2023-03-11T03:47:40;7.03;;;5.45;;
41946;SDS011;27638;42.184;24.848;2023-03-11T03:50:06;6.22;;;5.00;;
41946;SDS011;27638;42.184;24.848;2023-03-11T03:52:34;9.13;;;4.80;;
41946;SDS011;27638;42.184;24.848;2023-03-11T03:55:00;7.53;;;4.88;;
41946;SDS011;27638;42.184;24.848;2023-03-11T03:57:26;9.57;;;5.20;;
41946;SDS011;27638;42.184;24.848;2023-03-11T03:59:53;8.98;;;5.47;;
41946;SDS011;27638;42.184;24.848;2023-03-11T04:02:18;6.95;;;5.20;;
41946;SDS011;27638;42.184;24.848;2023-03-11T04:04:44;6.82;;;5.22;;
41946;SDS011;27638;42.184;24.848;2023-03-11T04:07:09;5.93;;;5.03;;
41946;SDS011;27638;42.184;24.848;2023-03-11T04:09:37;10.82;;;6.68;;
41946;SDS011;27638;42.184;24.848;2023-03-11T04:12:04;10.55;;;7.40;;
41946;SDS011;27638;42.184;24.848;2023-03-11T04:14:29;15.65;;;6.65;;
41946;SDS011;27638;42.184;24.848;2023-03-11T04:16:55;9.63;;;6.05;;
41946;SDS011;27638;42.184;24.848;2023-03-11T04:19:21;8.40;;;5.43;;
41946;SDS011;27638;42.184;24.848;2023-03-11T04:21:47;8.88;;;6.00;;
41946;SDS011;27638;42.184;24.848;2023-03-11T04:24:14;7.18;;;5.97;;
41946;SDS011;27638;42.184;24.848;2023-03-11T04:26:40;8.60;;;5.72;;
41946;SDS011;27638;42.184;24.848;2023-03-11T04:29:05;7.53;;;5.35;;
41946;SDS011;27638;42.184;24.848;2023-03-11T04:31:31;14.25;;;5.82;;
41946;SDS011;27638;42.184;24.848;2023-03-11T04:33:56;6.93;;;5.28;;
41946;SDS011;27638;42.184;24.848;2023-03-11T04:36:22;7.03;;;5.15;;
41946;SDS011;27638;42.184;24.848;2023-03-11T04:38:47;8.23;;;5.10;;
41946;SDS011;27638;42.184;24.848;2023-03-11T04:41:13;7.57;;;5.30;;
41946;SDS011;27638;42.184;24.848;2023-03-11T04:43:38;9.43;;;5.90;;
41946;SDS011;27638;42.184;24.848;2023-03-11T04:46:03;24.30;;;13.35;;
41946;SDS011;27638;42.184;24.848;2023-03-11T04:48:29;12.93;;;9.10;;
41946;SDS011;27638;42.184;24.848;2023-03-11T05:16:07;12.20;;;7.05;;
41946;SDS011;27638;42.184;24.848;2023-03-11T05:18:32;12.68;;;8.82;;
41946;SDS011;27638;42.184;24.848;2023-03-11T05:20:58;15.48;;;11.90;;
41946;SDS011;27638;42.184;24.848;2023-03-11T05:23:24;28.70;;;19.50;;
41946;SDS011;27638;42.184;24.848;2023-03-11T05:25:49;31.67;;;18.35;;
41946;SDS011;27638;42.184;24.848;2023-03-11T05:28:15;18.05;;;10.63;;
41946;SDS011;27638;42.184;24.848;2023-03-11T05:30:40;13.10;;;8.77;;
41946;SDS011;27638;42.184;24.848;2023-03-11T05:33:05;17.25;;;13.00;;
41946;SDS011;27638;42.184;24.848;2023-03-11T05:35:31;18.10;;;13.55;;
41946;SDS011;27638;42.184;24.848;2023-03-11T05:37:56;18.50;;;13.48;;
41946;SDS011;27638;42.184;24.848;2023-03-11T05:40:22;23.08;;;17.58;;
41946;SDS011;27638;42.184;24.848;2023-03-11T05:42:47;20.42;;;15.40;;
41946;SDS011;27638;42.184;24.848;2023-03-11T05:45:13;16.98;;;14.18;;
41946;SDS011;27638;42.184;24.848;2023-03-11T05:47:39;17.23;;;12.65;;
41946;SDS011;27638;42.184;24.848;2023-03-11T05:50:06;19.77;;;11.82;;
41946;SDS011;27638;42.184;24.848;2023-03-11T05:52:33;16.85;;;11.82;;
41946;SDS011;27638;42.184;24.848;2023-03-11T05:54:58;15.15;;;10.45;;
41946;SDS011;27638;42.184;24.848;2023-03-11T05:57:24;16.15;;;10.57;;
41946;SDS011;27638;42.184;24.848;2023-03-11T05:59:49;14.55;;;10.88;;
41946;SDS011;27638;42.184;24.848;2023-03-11T06:02:15;18.25;;;10.80;;
41946;SDS011;27638;42.184;24.848;2023-03-11T06:04:40;19.02;;;12.20;;
41946;SDS011;27638;42.184;24.848;2023-03-11T06:07:06;18.45;;;11.05;;
41946;SDS011;27638;42.184;24.848;2023-03-11T06:09:31;15.55;;;11.50;;
41946;SDS011;27638;42.184;24.848;2023-03-11T06:12:00;16.65;;;10.73;;
41946;SDS011;27638;42.184;24.848;2023-03-11T06:14:26;15.40;;;9.00;;
41946;SDS011;27638;42.184;24.848;2023-03-11T06:16:55;10.73;;;7.75;;
41946;SDS011;27638;42.184;24.848;2023-03-11T06:19:21;8.25;;;5.93;;
41946;SDS011;27638;42.184;24.848;2023-03-11T06:21:47;9.75;;;6.88;;
41946;SDS011;27638;42.184;24.848;2023-03-11T06:24:12;8.85;;;6.22;;
41946;SDS011;27638;42.184;24.848;2023-03-11T06:26:38;6.57;;;5.10;;
41946;SDS011;27638;42.184;24.848;2023-03-11T06:29:03;7.45;;;4.72;;
41946;SDS011;27638;42.184;24.848;2023-03-11T06:31:29;6.53;;;4.93;;
41946;SDS011;27638;42.184;24.848;2023-03-11T06:33:55;6.38;;;4.95;;
41946;SDS011;27638;42.184;24.848;2023-03-11T06:36:20;5.45;;;4.15;;
41946;SDS011;27638;42.184;24.848;2023-03-11T06:38:47;8.07;;;5.03;;
41946;SDS011;27638;42.184;24.848;2023-03-11T06:41:14;8.65;;;4.65;;
41946;SDS011;27638;42.184;24.848;2023-03-11T06:43:40;7.53;;;4.97;;
41946;SDS011;27638;42.184;24.848;2023-03-11T06:46:10;6.13;;;4.93;;
41946;SDS011;27638;42.184;24.848;2023-03-11T06:48:37;5.97;;;4.57;;
41946;SDS011;27638;42.184;24.848;2023-03-11T06:51:03;5.07;;;4.20;;
41946;SDS011;27638;42.184;24.848;2023-03-11T06:53:29;4.43;;;3.20;;
41946;SDS011;27638;42.184;24.848;2023-03-11T06:55:58;3.83;;;3.20;;
41946;SDS011;27638;42.184;24.848;2023-03-11T06:58:24;6.15;;;3.92;;
41946;SDS011;27638;42.184;24.848;2023-03-11T07:00:50;7.60;;;3.75;;
41946;SDS011;27638;42.184;24.848;2023-03-11T07:03:16;4.78;;;3.72;;
41946;SDS011;27638;42.184;24.848;2023-03-11T07:05:41;4.70;;;3.47;;
41946;SDS011;27638;42.184;24.848;2023-03-11T07:08:06;4.43;;;2.83;;
41946;SDS011;27638;42.184;24.848;2023-03-11T07:10:32;4.45;;;3.20;;
41946;SDS011;27638;42.184;24.848;2023-03-11T07:12:58;4.85;;;2.83;;
41946;SDS011;27638;42.184;24.848;2023-03-11T07:15:23;4.22;;;2.88;;
41946;SDS011;27638;42.184;24.848;2023-03-11T07:17:49;3.88;;;2.70;;
41946;SDS011;27638;42.184;24.848;2023-03-11T07:20:14;3.40;;;2.15;;
41946;SDS011;27638;42.184;24.848;2023-03-11T07:22:40;2.55;;;2.10;;
41946;SDS011;27638;42.184;24.848;2023-03-11T07:25:05;3.13;;;2.30;;
41946;SDS011;27638;42.184;24.848;2023-03-11T07:27:31;2.33;;;2.13;;
41946;SDS011;27638;42.184;24.848;2023-03-11T07:29:57;4.38;;;2.20;;
41946;SDS011;27638;42.184;24.848;2023-03-11T07:32:22;3.90;;;2.15;;
41946;SDS011;27638;42.184;24.848;2023-03-11T07:34:48;2.33;;;1.90;;
41946;SDS011;27638;42.184;24.848;2023-03-11T07:37:13;2.67;;;1.88;;
41946;SDS011;27638;42.184;24.848;2023-03-11T07:39:38;2.40;;;1.80;;
41946;SDS011;27638;42.184;24.848;2023-03-11T07:42:04;2.65;;;2.10;;
41946;SDS011;27638;42.184;24.848;2023-03-11T07:44:30;2.10;;;1.90;;
41946;SDS011;27638;42.184;24.848;2023-03-11T07:46:55;2.85;;;1.55;;
41946;SDS011;27638;42.184;24.848;2023-03-11T07:49:20;1.27;;;1.17;;
41946;SDS011;27638;42.184;24.848;2023-03-11T07:51:46;2.28;;;1.85;;
41946;SDS011;27638;42.184;24.848;2023-03-11T07:54:12;1.20;;;1.10;;
41946;SDS011;27638;42.184;24.848;2023-03-11T07:56:37;4.07;;;2.03;;
41946;SDS011;27638;42.184;24.848;2023-03-11T07:59:03;1.95;;;1.75;;
41946;SDS011;27638;42.184;24.848;2023-03-11T08:01:30;3.85;;;2.05;;
41946;SDS011;27638;42.184;24.848;2023-03-11T08:04:06;2.05;;;1.20;;
41946;SDS011;27638;42.184;24.848;2023-03-11T08:06:33;2.65;;;1.33;;
41946;SDS011;27638;42.184;24.848;2023-03-11T08:09:01;1.52;;;0.95;;
41946;SDS011;27638;42.184;24.848;2023-03-11T08:11:28;1.02;;;0.82;;
41946;SDS011;27638;42.184;24.848;2023-03-11T08:13:54;1.08;;;0.80;;
41946;SDS011;27638;42.184;24.848;2023-03-11T08:16:21;1.42;;;1.08;;
41946;SDS011;27638;42.184;24.848;2023-03-11T08:18:48;2.67;;;1.23;;
41946;SDS011;27638;42.184;24.848;2023-03-11T08:21:16;1.90;;;0.93;;
41946;SDS011;27638;42.184;24.848;2023-03-11T08:23:46;1.92;;;0.80;;
41946;SDS011;27638;42.184;24.848;2023-03-11T08:26:13;2.15;;;0.90;;
41946;SDS011;27638;42.184;24.848;2023-03-11T08:28:41;2.08;;;0.95;;
41946;SDS011;27638;42.184;24.848;2023-03-11T08:31:14;2.53;;;1.15;;
41946;SDS011;27638;42.184;24.848;2023-03-11T08:33:45;1.67;;;1.10;;
41946;SDS011;27638;42.184;24.848;2023-03-11T08:36:13;1.58;;;0.90;;
41946;SDS011;27638;42.184;24.848;2023-03-11T08:38:39;3.65;;;1.00;;
41946;SDS011;27638;42.184;24.848;2023-03-11T08:41:05;1.25;;;1.05;;
41946;SDS011;27638;42.184;24.848;2023-03-11T08:43:30;2.83;;;1.27;;
41946;SDS011;27638;42.184;24.848;2023-03-11T08:45:56;2.45;;;1.05;;
41946;SDS011;27638;42.184;24.848;2023-03-11T08:48:24;1.60;;;0.90;;
41946;SDS011;27638;42.184;24.848;2023-03-11T08:50:49;1.88;;;0.80;;
41946;SDS011;27638;42.184;24.848;2023-03-11T08:53:15;1.35;;;0.90;;
41946;SDS011;27638;42.184;24.848;2023-03-11T08:55:40;2.97;;;0.93;;
41946;SDS011;27638;42.184;24.848;2023-03-11T08:58:06;2.70;;;0.90;;
41946;SDS011;27638;42.184;24.848;2023-03-11T09:00:31;3.80;;;0.88;;
41946;SDS011;27638;42.184;24.848;2023-03-11T09:02:57;7.10;;;1.75;;
41946;SDS011;27638;42.184;24.848;2023-03-11T09:05:23;4.65;;;2.40;;
41946;SDS011;27638;42.184;24.848;2023-03-11T09:07:48;6.72;;;2.10;;
41946;SDS011;27638;42.184;24.848;2023-03-11T09:10:14;4.50;;;2.20;;
41946;SDS011;27638;42.184;24.848;2023-03-11T09:12:40;4.05;;;1.27;;
41946;SDS011;27638;42.184;24.848;2023-03-11T09:15:06;1.25;;;0.70;;
41946;SDS011;27638;42.184;24.848;2023-03-11T09:17:33;0.70;;;0.70;;
41946;SDS011;27638;42.184;24.848;2023-03-11T09:19:58;0.80;;;0.77;;
41946;SDS011;27638;42.184;24.848;2023-03-11T09:22:24;1.85;;;0.50;;
41946;SDS011;27638;42.184;24.848;2023-03-11T09:24:49;1.00;;;0.70;;
41946;SDS011;27638;42.184;24.848;2023-03-11T09:27:14;3.13;;;0.70;;
41946;SDS011;27638;42.184;24.848;2023-03-11T09:29:40;1.10;;;0.80;;
41946;SDS011;27638;42.184;24.848;2023-03-11T09:32:06;1.30;;;1.13;;
41946;SDS011;27638;42.184;24.848;2023-03-11T09:34:31;1.65;;;1.10;;
41946;SDS011;27638;42.184;24.848;2023-03-11T09:36:57;1.40;;;1.00;;
41946;SDS011;27638;42.184;24.848;2023-03-11T09:39:22;1.88;;;1.33;;
41946;SDS011;27638;42.184;24.848;2023-03-11T09:41:51;1.65;;;1.08;;
41946;SDS011;27638;42.184;24.848;2023-03-11T09:47:14;1.95;;;1.38;;
41946;SDS011;27638;42.184;24.848;2023-03-11T09:52:32;2.30;;;0.93;;
41946;SDS011;27638;42.184;24.848;2023-03-11T09:55:29;1.02;;;1.02;;
41946;SDS011;27638;42.184;24.848;2023-03-11T09:58:21;1.13;;;1.02;;
41946;SDS011;27638;42.184;24.848;2023-03-11T10:03:24;1.50;;;1.08;;
41946;SDS011;27638;42.184;24.848;2023-03-11T10:08:46;0.90;;;0.90;;
41946;SDS011;27638;42.184;24.848;2023-03-11T10:11:44;3.42;;;1.50;;
41946;SDS011;27638;42.184;24.848;2023-03-11T10:25:35;0.98;;;0.88;;
41946;SDS011;27638;42.184;24.848;2023-03-11T10:28:11;5.40;;;1.20;;
41946;SDS011;27638;42.184;24.848;2023-03-11T10:30:39;3.00;;;0.88;;
41946;SDS011;27638;42.184;24.848;2023-03-11T10:33:13;1.85;;;0.90;;
41946;SDS011;27638;42.184;24.848;2023-03-11T10:35:46;0.98;;;0.77;;
41946;SDS011;27638;42.184;24.848;2023-03-11T10:38:18;3.17;;;0.90;;
41946;SDS011;27638;42.184;24.848;2023-03-11T10:40:50;2.92;;;1.20;;
41946;SDS011;27638;42.184;24.848;2023-03-11T10:48:18;1.10;;;0.73;;
41946;SDS011;27638;42.184;24.848;2023-03-11T10:50:54;1.45;;;0.85;;
41946;SDS011;27638;42.184;24.848;2023-03-11T10:53:26;1.48;;;0.90;;
41946;SDS011;27638;42.184;24.848;2023-03-11T10:55:52;0.65;;;0.65;;
41946;SDS011;27638;42.184;24.848;2023-03-11T10:58:21;2.28;;;0.73;;
41946;SDS011;27638;42.184;24.848;2023-03-11T11:01:03;2.25;;;0.60;;
41946;SDS011;27638;42.184;24.848;2023-03-11T11:03:37;0.85;;;0.85;;
41946;SDS011;27638;42.184;24.848;2023-03-11T11:06:16;0.70;;;0.50;;
41946;SDS011;27638;42.184;24.848;2023-03-11T11:08:45;1.25;;;0.90;;
41946;SDS011;27638;42.184;24.848;2023-03-11T11:11:21;0.70;;;0.70;;
41946;SDS011;27638;42.184;24.848;2023-03-11T11:13:55;3.00;;;0.93;;
41946;SDS011;27638;42.184;24.848;2023-03-11T11:18:47;0.85;;;0.82;;
41946;SDS011;27638;42.184;24.848;2023-03-11T11:31:54;1.15;;;0.70;;
41946;SDS011;27638;42.184;24.848;2023-03-11T11:34:51;2.45;;;0.82;;
41946;SDS011;27638;42.184;24.848;2023-03-11T11:37:20;0.88;;;0.70;;
41946;SDS011;27638;42.184;24.848;2023-03-11T11:39:51;1.73;;;0.70;;
41946;SDS011;27638;42.184;24.848;2023-03-11T11:42:20;2.10;;;0.70;;
41946;SDS011;27638;42.184;24.848;2023-03-11T11:44:52;1.70;;;0.60;;
41946;SDS011;27638;42.184;24.848;2023-03-11T11:47:29;1.45;;;1.02;;
41946;SDS011;27638;42.184;24.848;2023-03-11T11:49:59;1.83;;;0.68;;
41946;SDS011;27638;42.184;24.848;2023-03-11T11:52:36;0.93;;;0.60;;
41946;SDS011;27638;42.184;24.848;2023-03-11T11:55:26;1.85;;;1.08;;
41946;SDS011;27638;42.184;24.848;2023-03-11T11:57:54;1.80;;;1.10;;
41946;SDS011;27638;42.184;24.848;2023-03-11T12:00:22;0.70;;;0.70;;
41946;SDS011;27638;42.184;24.848;2023-03-11T12:05:31;8.98;;;1.15;;
41946;SDS011;27638;42.184;24.848;2023-03-11T12:10:42;1.73;;;0.60;;
41946;SDS011;27638;42.184;24.848;2023-03-11T12:18:38;0.52;;;0.40;;
41946;SDS011;27638;42.184;24.848;2023-03-11T12:21:21;0.73;;;0.60;;
41946;SDS011;27638;42.184;24.848;2023-03-11T12:26:42;1.13;;;0.73;;
41946;SDS011;27638;42.184;24.848;2023-03-11T12:29:31;0.80;;;0.80;;
41946;SDS011;27638;42.184;24.848;2023-03-11T12:32:02;0.88;;;0.70;;
41946;SDS011;27638;42.184;24.848;2023-03-11T12:34:28;1.00;;;1.00;;
41946;SDS011;27638;42.184;24.848;2023-03-11T12:36:58;0.82;;;0.80;;
41946;SDS011;27638;42.184;24.848;2023-03-11T12:39:28;0.77;;;0.73;;
41946;SDS011;27638;42.184;24.848;2023-03-11T12:44:49;0.70;;;0.70;;
41946;SDS011;27638;42.184;24.848;2023-03-11T12:47:16;0.80;;;0.73;;
41946;SDS011;27638;42.184;24.848;2023-03-11T12:52:56;3.65;;;0.82;;
41946;SDS011;27638;42.184;24.848;2023-03-11T12:55:23;1.25;;;0.77;;
41946;SDS011;27638;42.184;24.848;2023-03-11T12:57:59;0.95;;;0.65;;
41946;SDS011;27638;42.184;24.848;2023-03-11T13:09:12;12.02;;;1.30;;
41946;SDS011;27638;42.184;24.848;2023-03-11T13:11:44;2.33;;;0.70;;
41946;SDS011;27638;42.184;24.848;2023-03-11T13:16:42;1.50;;;0.50;;
41946;SDS011;27638;42.184;24.848;2023-03-11T13:21:57;2.10;;;0.68;;
41946;SDS011;27638;42.184;24.848;2023-03-11T13:34:46;2.65;;;0.60;;
41946;SDS011;27638;42.184;24.848;2023-03-11T13:37:29;2.80;;;0.60;;
41946;SDS011;27638;42.184;24.848;2023-03-11T13:43:35;1.63;;;0.75;;
41946;SDS011;27638;42.184;24.848;2023-03-11T13:46:01;1.20;;;0.73;;
41946;SDS011;27638;42.184;24.848;2023-03-11T13:48:35;0.80;;;0.77;;
41946;SDS011;27638;42.184;24.848;2023-03-11T13:51:13;3.67;;;1.33;;
41946;SDS011;27638;42.184;24.848;2023-03-11T13:53:44;0.77;;;0.52;;
41946;SDS011;27638;42.184;24.848;2023-03-11T13:56:16;2.25;;;1.00;;
41946;SDS011;27638;42.184;24.848;2023-03-11T13:58:46;1.25;;;1.08;;
41946;SDS011;27638;42.184;24.848;2023-03-11T14:01:15;1.80;;;0.75;;
41946;SDS011;27638;42.184;24.848;2023-03-11T14:03:42;2.13;;;1.00;;
41946;SDS011;27638;42.184;24.848;2023-03-11T14:06:13;1.05;;;0.80;;
41946;SDS011;27638;42.184;24.848;2023-03-11T14:08:41;2.42;;;0.75;;
41946;SDS011;27638;42.184;24.848;2023-03-11T14:11:16;1.00;;;0.90;;
41946;SDS011;27638;42.184;24.848;2023-03-11T14:18:46;1.27;;;0.70;;
41946;SDS011;27638;42.184;24.848;2023-03-11T14:21:24;0.93;;;0.63;;
41946;SDS011;27638;42.184;24.848;2023-03-11T14:23:51;1.83;;;0.85;;
41946;SDS011;27638;42.184;24.848;2023-03-11T14:28:55;2.13;;;0.85;;
41946;SDS011;27638;42.184;24.848;2023-03-11T14:31:33;1.05;;;0.77;;
41946;SDS011;27638;42.184;24.848;2023-03-11T14:34:01;0.98;;;0.90;;
41946;SDS011;27638;42.184;24.848;2023-03-11T14:36:59;1.58;;;0.90;;
41946;SDS011;27638;42.184;24.848;2023-03-11T14:42:01;2.55;;;0.93;;
41946;SDS011;27638;42.184;24.848;2023-03-11T14:44:32;1.17;;;1.00;;
41946;SDS011;27638;42.184;24.848;2023-03-11T14:49:43;1.60;;;0.88;;
41946;SDS011;27638;42.184;24.848;2023-03-11T14:52:18;2.22;;;1.40;;
41946;SDS011;27638;42.184;24.848;2023-03-11T14:54:49;2.78;;;1.20;;
41946;SDS011;27638;42.184;24.848;2023-03-11T15:00:00;1.20;;;0.77;;
41946;SDS011;27638;42.184;24.848;2023-03-11T15:02:37;1.10;;;1.00;;
41946;SDS011;27638;42.184;24.848;2023-03-11T15:05:20;2.42;;;1.05;;
41946;SDS011;27638;42.184;24.848;2023-03-11T15:07:57;1.30;;;1.15;;
41946;SDS011;27638;42.184;24.848;2023-03-11T15:10:25;3.25;;;1.20;;
41946;SDS011;27638;42.184;24.848;2023-03-11T15:12:51;2.47;;;1.50;;
41946;SDS011;27638;42.184;24.848;2023-03-11T15:15:32;3.40;;;2.08;;
41946;SDS011;27638;42.184;24.848;2023-03-11T15:17:59;4.45;;;2.72;;
41946;SDS011;27638;42.184;24.848;2023-03-11T15:20:32;4.63;;;2.00;;
41946;SDS011;27638;42.184;24.848;2023-03-11T15:23:05;2.78;;;2.28;;
41946;SDS011;27638;42.184;24.848;2023-03-11T15:25:46;3.47;;;2.10;;
41946;SDS011;27638;42.184;24.848;2023-03-11T15:28:20;3.55;;;2.00;;
41946;SDS011;27638;42.184;24.848;2023-03-11T15:33:42;5.82;;;3.78;;
41946;SDS011;27638;42.184;24.848;2023-03-11T15:44:32;2.03;;;1.35;;
41946;SDS011;27638;42.184;24.848;2023-03-11T15:47:15;1.63;;;0.73;;
41946;SDS011;27638;42.184;24.848;2023-03-11T15:49:42;1.20;;;0.90;;
41946;SDS011;27638;42.184;24.848;2023-03-11T15:52:08;2.17;;;1.33;;
41946;SDS011;27638;42.184;24.848;2023-03-11T15:54:34;1.73;;;1.35;;
41946;SDS011;27638;42.184;24.848;2023-03-11T15:57:00;5.65;;;2.95;;
41946;SDS011;27638;42.184;24.848;2023-03-11T15:59:30;5.43;;;3.00;;
41946;SDS011;27638;42.184;24.848;2023-03-11T16:01:56;2.15;;;1.63;;
41946;SDS011;27638;42.184;24.848;2023-03-11T16:04:23;1.45;;;1.00;;
41946;SDS011;27638;42.184;24.848;2023-03-11T16:06:49;3.22;;;1.52;;
41946;SDS011;27638;42.184;24.848;2023-03-11T16:09:15;4.38;;;1.52;;
41946;SDS011;27638;42.184;24.848;2023-03-11T16:11:41;3.58;;;1.30;;
41946;SDS011;27638;42.184;24.848;2023-03-11T16:14:14;1.55;;;0.90;;
41946;SDS011;27638;42.184;24.848;2023-03-11T16:16:41;2.63;;;1.27;;
41946;SDS011;27638;42.184;24.848;2023-03-11T16:19:07;1.92;;;1.40;;
41946;SDS011;27638;42.184;24.848;2023-03-11T16:21:34;4.00;;;1.30;;
41946;SDS011;27638;42.184;24.848;2023-03-11T16:24:04;0.40;;;0.40;;
41946;SDS011;27638;42.184;24.848;2023-03-11T16:26:30;2.05;;;0.77;;
41946;SDS011;27638;42.184;24.848;2023-03-11T16:28:56;1.85;;;1.00;;
41946;SDS011;27638;42.184;24.848;2023-03-11T16:31:22;0.80;;;0.80;;
41946;SDS011;27638;42.184;24.848;2023-03-11T16:33:48;1.25;;;0.80;;
41946;SDS011;27638;42.184;24.848;2023-03-11T16:36:13;1.00;;;0.90;;
41946;SDS011;27638;42.184;24.848;2023-03-11T16:38:41;2.13;;;0.90;;
41946;SDS011;27638;42.184;24.848;2023-03-11T16:41:09;2.70;;;1.00;;
41946;SDS011;27638;42.184;24.848;2023-03-11T16:43:35;2.17;;;1.15;;
41946;SDS011;27638;42.184;24.848;2023-03-11T16:46:00;1.77;;;0.70;;
41946;SDS011;27638;42.184;24.848;2023-03-11T16:48:26;1.55;;;0.80;;
41946;SDS011;27638;42.184;24.848;2023-03-11T16:50:51;1.00;;;0.80;;
41946;SDS011;27638;42.184;24.848;2023-03-11T16:53:17;1.33;;;0.90;;
41946;SDS011;27638;42.184;24.848;2023-03-11T16:55:45;2.03;;;1.23;;
41946;SDS011;27638;42.184;24.848;2023-03-11T16:58:12;1.55;;;1.23;;
41946;SDS011;27638;42.184;24.848;2023-03-11T17:00:38;1.88;;;1.15;;
41946;SDS011;27638;42.184;24.848;2023-03-11T17:03:05;3.17;;;1.90;;
41946;SDS011;27638;42.184;24.848;2023-03-11T17:05:31;4.00;;;1.33;;